Time;durP1;ratioP1;P1;durP2;ratioP2;P2;SDS_P1;SDS_P2;PMS_P1;PMS_P2;Temp;Humidity;BMP_temperature;BMP_pressure;BME280_temperature;BME280_humidity;BME280_pressure;Samples;Min_cycle;Max_cycle;Signal;HPM_P1;HPM_P2
2024/01/30 00:00:19;;;;;;;3.90;1.50;;;;;;;36.22;29.28;99892.28;7395736;19;20066;-49
2024/01/30 00:02:45;;;;;;;5.18;1.63;;;;;;;36.44;28.83;99883.84;7393302;19;20352;-49
2024/01/30 00:05:11;;;;;;;3.25;2.03;;;;;;;36.56;28.95;99883.66;7394965;19;20015;-49
2024/01/30 00:07:38;;;;;;;6.75;2.05;;;;;;;35.97;29.44;99889.69;7394724;19;20048;-49
2024/01/30 00:10:06;;;;;;;6.53;2.33;;;;;;;35.52;29.45;99883.91;7397078;19;20018;-49
2024/01/30 00:12:32;;;;;;;5.93;2.10;;;;;;;34.90;30.39;99878.63;7395489;19;20474;-49
2024/01/30 00:14:58;;;;;;;14.68;2.03;;;;;;;35.73;29.65;99883.47;7395352;19;20466;-49
2024/01/30 00:17:26;;;;;;;19.33;2.40;;;;;;;35.51;29.70;99882.41;7395787;19;20344;-49
2024/01/30 00:19:52;;;;;;;6.68;2.03;;;;;;;35.69;29.81;99883.25;7394153;19;20010;-49
2024/01/30 00:22:18;;;;;;;19.38;3.05;;;;;;;35.33;29.99;99878.59;7397527;19;20014;-49
2024/01/30 00:24:44;;;;;;;4.45;1.00;;;;;;;33.79;31.48;99886.41;7395214;19;20506;-49
2024/01/30 00:27:10;;;;;;;8.25;2.55;;;;;;;34.62;30.91;99879.31;7394816;19;20011;-49
2024/01/30 00:29:36;;;;;;;6.35;1.63;;;;;;;35.41;30.16;99889.84;7393248;19;20011;-49
2024/01/30 00:32:03;;;;;;;3.83;0.80;;;;;;;36.79;29.35;99880.28;7394190;19;20014;-49
2024/01/30 00:34:29;;;;;;;3.30;1.67;;;;;;;36.80;29.32;99879.63;7394041;19;20037;-49
2024/01/30 00:36:55;;;;;;;5.97;2.00;;;;;;;35.33;29.95;99880.75;7394481;19;20037;-49
2024/01/30 00:39:21;;;;;;;6.28;1.15;;;;;;;34.34;31.23;99884.34;7394516;19;20041;-49
2024/01/30 00:41:47;;;;;;;2.22;1.30;;;;;;;36.05;29.75;99883.50;7398599;19;20363;-49
2024/01/30 00:44:13;;;;;;;2.75;1.15;;;;;;;35.82;30.11;99883.84;7393943;19;20013;-48
2024/01/30 00:46:39;;;;;;;7.75;1.48;;;;;;;35.71;30.08;99879.72;7392469;19;20014;-49
2024/01/30 00:49:05;;;;;;;6.88;1.05;;;;;;;36.04;29.52;99888.53;7394176;19;20375;-49
2024/01/30 00:51:31;;;;;;;2.10;1.08;;;;;;;36.42;29.45;99881.63;7397493;19;20046;-49
2024/01/30 00:53:57;;;;;;;1.23;1.05;;;;;;;36.46;29.40;99881.03;7394384;19;20065;-49
2024/01/30 00:56:24;;;;;;;4.35;1.23;;;;;;;36.38;28.99;99875.63;7392738;19;20014;-49
2024/01/30 00:58:50;;;;;;;5.65;1.48;;;;;;;36.21;29.45;99879.16;7393005;19;20018;-49
2024/01/30 01:01:16;;;;;;;2.70;1.67;;;;;;;36.03;29.48;99874.72;7396128;19;20014;-49
2024/01/30 01:03:43;;;;;;;18.83;1.85;;;;;;;36.02;29.60;99879.75;7393714;19;20014;-49
2024/01/30 01:06:10;;;;;;;3.25;1.10;;;;;;;36.37;29.30;99877.00;7392821;19;20022;-49
2024/01/30 01:08:36;;;;;;;1.13;0.30;;;;;;;36.77;29.27;99875.16;7392661;19;20026;-49
2024/01/30 01:11:03;;;;;;;1.60;1.35;;;;;;;36.81;28.98;99875.31;7396773;19;20462;-49
2024/01/30 01:13:29;;;;;;;11.30;1.98;;;;;;;37.66;28.61;99865.06;7393051;19;20011;-49
2024/01/30 01:15:55;;;;;;;4.85;1.02;;;;;;;38.61;27.61;99871.53;7393896;19;20015;-49
2024/01/30 01:18:21;;;;;;;1.50;0.70;;;;;;;37.82;28.18;99868.59;7393276;19;20006;-49
2024/01/30 01:20:47;;;;;;;3.35;0.98;;;;;;;37.72;28.33;99868.19;7395808;19;20013;-49
2024/01/30 01:23:14;;;;;;;3.65;1.13;;;;;;;37.99;27.64;99869.97;7394036;19;20021;-49
2024/01/30 01:25:40;;;;;;;1.23;0.50;;;;;;;38.24;27.77;99889.81;7391854;19;20070;-49
2024/01/30 01:28:06;;;;;;;0.52;0.13;;;;;;;37.96;27.16;99906.22;7391886;19;20037;-48
2024/01/30 01:30:32;;;;;;;1.55;0.40;;;;;;;38.07;26.24;99916.81;7394078;19;20070;-48
2024/01/30 01:33:01;;;;;;;0.65;0.22;;;;;;;37.82;25.88;99920.94;7392345;19;20021;-48
2024/01/30 01:35:27;;;;;;;3.10;1.00;;;;;;;36.84;26.28;99929.16;7393407;19;20490;-48
2024/01/30 01:37:59;;;;;;;0.10;0.10;;;;;;;37.48;26.16;99937.00;7393163;19;20038;-48
2024/01/30 01:40:26;;;;;;;0.30;0.10;;;;;;;37.46;25.45;99941.97;7395373;19;20034;-49
2024/01/30 01:42:54;;;;;;;0.73;0.40;;;;;;;37.52;25.32;99939.31;7392930;19;20010;-48
2024/01/30 01:45:21;;;;;;;0.20;0.20;;;;;;;37.40;25.13;99944.66;7390213;19;20379;-49
2024/01/30 01:47:49;;;;;;;0.50;0.20;;;;;;;37.22;24.71;99954.06;7393455;19;20014;-49
2024/01/30 01:50:19;;;;;;;1.75;0.85;;;;;;;37.32;24.94;99959.53;7393833;19;20013;-48
2024/01/30 01:52:50;;;;;;;0.35;0.13;;;;;;;37.37;24.66;99967.06;7391487;19;20459;-48
2024/01/30 01:55:21;;;;;;;2.83;1.05;;;;;;;36.70;24.64;99966.28;7392586;19;20021;-48
2024/01/30 01:57:48;;;;;;;1.70;0.57;;;;;;;36.52;25.25;99971.25;7391992;19;20011;-48
2024/01/30 02:00:15;;;;;;;2.95;1.10;;;;;;;36.61;24.85;99964.44;7392180;19;20462;-48
2024/01/30 02:02:45;;;;;;;2.47;0.68;;;;;;;36.57;24.97;99972.19;7391868;19;20393;-48
2024/01/30 02:05:11;;;;;;;1.38;0.82;;;;;;;36.66;24.74;99980.63;7391684;19;20017;-49
2024/01/30 02:07:37;;;;;;;0.63;0.13;;;;;;;36.68;24.74;99977.06;7394292;19;20010;-48
2024/01/30 02:10:04;;;;;;;4.05;0.65;;;;;;;36.51;24.68;99978.50;7400435;19;20013;-47
2024/01/30 02:12:30;;;;;;;3.85;0.88;;;;;;;36.54;25.00;99980.06;7399460;19;20066;-48
2024/01/30 02:14:56;;;;;;;6.22;1.08;;;;;;;35.78;25.10;99983.69;7401168;19;20066;-47
2024/01/30 02:17:23;;;;;;;1.50;1.40;;;;;;;35.31;25.74;99979.88;7403421;19;20015;-48
2024/01/30 02:19:49;;;;;;;2.53;0.55;;;;;;;35.11;25.54;99990.44;7398520;19;20097;-48
2024/01/30 02:22:16;;;;;;;3.85;1.00;;;;;;;35.11;25.45;99987.53;7403195;19;20010;-48
2024/01/30 02:24:42;;;;;;;1.80;0.47;;;;;;;35.46;25.42;99993.69;7398712;19;20466;-48
2024/01/30 02:27:08;;;;;;;2.97;0.75;;;;;;;35.21;25.94;99984.41;7396334;19;20006;-48
2024/01/30 02:29:34;;;;;;;2.05;0.80;;;;;;;35.14;25.79;99989.16;7398360;19;20058;-48
2024/01/30 02:32:00;;;;;;;3.83;0.50;;;;;;;35.00;25.94;99991.31;7402766;19;20074;-48
2024/01/30 02:34:26;;;;;;;3.40;0.82;;;;;;;35.04;25.87;99991.53;7398787;19;20014;-48
2024/01/30 02:36:53;;;;;;;1.38;0.40;;;;;;;35.60;25.90;99994.44;7398832;19;20022;-48
2024/01/30 02:39:19;;;;;;;0.47;0.47;;;;;;;36.02;25.26;99992.84;7398568;19;20022;-48
2024/01/30 02:41:45;;;;;;;3.88;1.02;;;;;;;35.64;25.26;99990.97;7402110;19;20006;-48
2024/01/30 02:44:11;;;;;;;1.92;1.58;;;;;;;35.96;25.01;99997.59;7397981;19;20082;-48
2024/01/30 02:46:37;;;;;;;4.45;1.27;;;;;;;36.30;24.87;99991.28;7395147;19;20015;-48
2024/01/30 02:49:04;;;;;;;2.40;1.30;;;;;;;36.65;24.32;99993.63;7398442;19;20025;-48
2024/01/30 02:51:30;;;;;;;4.13;0.90;;;;;;;36.85;24.46;100000.34;7400490;19;20024;-48
2024/01/30 02:53:56;;;;;;;1.88;0.88;;;;;;;36.74;24.74;100001.28;7397926;19;20010;-47
2024/01/30 02:56:22;;;;;;;1.05;0.47;;;;;;;36.27;24.66;99997.66;7398223;19;20011;-48
2024/01/30 02:58:48;;;;;;;1.13;0.90;;;;;;;36.20;24.72;99998.75;7397311;19;20491;-48
2024/01/30 03:01:14;;;;;;;2.92;0.40;;;;;;;35.93;25.27;100005.44;7399303;19;20010;-47
2024/01/30 03:03:40;;;;;;;3.15;0.65;;;;;;;35.59;25.43;100007.41;7395910;19;20014;-48
2024/01/30 03:06:07;;;;;;;5.30;1.30;;;;;;;35.59;25.38;100004.50;7395311;19;20608;-47
2024/01/30 03:08:34;;;;;;;3.60;1.13;;;;;;;35.68;24.74;100005.66;7397633;19;20032;-47
2024/01/30 03:11:01;;;;;;;1.05;0.65;;;;;;;35.99;24.71;100017.38;7400822;19;20451;-47
2024/01/30 03:13:27;;;;;;;0.60;0.60;;;;;;;35.85;25.19;100021.69;7397636;19;20062;-47
2024/01/30 03:15:53;;;;;;;3.10;0.75;;;;;;;35.61;25.12;100016.19;7397216;19;20014;-47
2024/01/30 03:18:20;;;;;;;2.63;0.52;;;;;;;35.65;24.86;100030.13;7395880;19;20015;-47
2024/01/30 03:20:47;;;;;;;0.70;0.55;;;;;;;35.90;24.62;100023.38;7396853;19;20003;-47
2024/01/30 03:23:13;;;;;;;0.65;0.65;;;;;;;36.04;24.45;100024.13;7398878;19;20361;-48
2024/01/30 03:25:39;;;;;;;0.20;0.20;;;;;;;36.01;24.31;100031.19;7394724;19;20013;-47
2024/01/30 03:28:05;;;;;;;8.45;0.70;;;;;;;36.44;23.99;100035.50;7395751;19;20032;-47
2024/01/30 03:30:32;;;;;;;0.55;0.47;;;;;;;36.58;23.69;100032.47;7396568;19;20015;-47
2024/01/30 03:32:58;;;;;;;0.50;0.40;;;;;;;36.65;24.03;100036.41;7396497;19;20372;-47
2024/01/30 03:35:24;;;;;;;0.50;0.28;;;;;;;36.72;23.83;100036.03;7395333;19;20014;-47
2024/01/30 03:37:50;;;;;;;1.13;0.40;;;;;;;36.35;23.78;100041.53;7395558;19;20015;-47
2024/01/30 03:40:16;;;;;;;0.93;0.63;;;;;;;36.63;23.78;100039.97;7397758;19;20011;-47
2024/01/30 03:42:42;;;;;;;3.65;0.82;;;;;;;36.50;23.81;100049.53;7400198;19;20015;-47
2024/01/30 03:45:08;;;;;;;2.10;0.50;;;;;;;36.50;23.76;100050.28;7395608;19;20014;-47
2024/01/30 03:47:35;;;;;;;0.55;0.55;;;;;;;36.20;23.66;100057.53;7395314;19;20336;-47
2024/01/30 03:50:01;;;;;;;2.42;0.25;;;;;;;35.79;23.70;100049.00;7396160;19;20111;-47
2024/01/30 03:52:27;;;;;;;0.38;0.30;;;;;;;36.02;23.76;100058.81;7399430;19;20014;-47
2024/01/30 03:54:53;;;;;;;0.20;0.20;;;;;;;35.62;24.04;100058.28;7395644;19;20010;-47
2024/01/30 03:57:19;;;;;;;5.20;0.90;;;;;;;35.84;23.90;100057.88;7395124;19;20353;-47
2024/01/30 03:59:45;;;;;;;1.15;0.65;;;;;;;35.62;23.93;100052.47;7395457;19;20014;-47
2024/01/30 04:02:11;;;;;;;2.17;0.30;;;;;;;35.63;24.21;100064.81;7395489;19;20017;-47
2024/01/30 04:04:37;;;;;;;0.73;0.43;;;;;;;35.58;24.10;100060.97;7399204;19;20038;-47
2024/01/30 04:07:04;;;;;;;1.10;0.65;;;;;;;35.17;24.16;100066.06;7393145;19;20036;-47
2024/01/30 04:09:30;;;;;;;2.05;0.75;;;;;;;35.01;24.10;100082.56;7395563;19;20418;-47
2024/01/30 04:11:56;;;;;;;2.92;0.52;;;;;;;35.10;24.19;100070.03;7394706;19;20011;-47
2024/01/30 04:14:22;;;;;;;1.23;0.73;;;;;;;34.85;24.18;100082.44;7397768;19;20049;-47
2024/01/30 04:16:48;;;;;;;0.95;0.65;;;;;;;34.91;24.29;100082.00;7392755;19;20023;-47
2024/01/30 04:19:14;;;;;;;0.82;0.43;;;;;;;34.94;24.02;100084.38;7394262;19;20493;-47
2024/01/30 04:21:40;;;;;;;0.73;0.60;;;;;;;35.61;23.82;100097.34;7396167;19;20506;-47
2024/01/30 04:24:07;;;;;;;0.35;0.35;;;;;;;34.81;24.17;100104.59;7396327;19;20018;-47
2024/01/30 04:26:33;;;;;;;0.30;0.30;;;;;;;34.56;24.46;100108.34;7392999;19;20013;-47
2024/01/30 04:28:59;;;;;;;0.10;0.10;;;;;;;34.56;24.57;100102.53;7394571;19;20066;-47
2024/01/30 04:31:25;;;;;;;0.90;0.68;;;;;;;34.79;24.28;100099.47;7391489;19;20462;-47
2024/01/30 04:33:51;;;;;;;0.98;0.28;;;;;;;34.53;24.29;100100.16;7394686;19;20031;-46
2024/01/30 04:36:17;;;;;;;0.28;0.28;;;;;;;34.42;24.37;100098.06;7394593;19;20019;-47
2024/01/30 04:38:43;;;;;;;0.80;0.30;;;;;;;34.42;23.93;100112.53;7395235;19;20386;-47
2024/01/30 04:41:09;;;;;;;0.10;0.10;;;;;;;34.35;24.19;100129.53;7398003;19;20010;-47
2024/01/30 04:43:35;;;;;;;0.10;0.10;;;;;;;34.37;24.48;100123.16;7394526;19;20015;-47
2024/01/30 04:46:01;;;;;;;0.30;0.30;;;;;;;34.26;24.64;100133.38;7391963;19;20013;-47
2024/01/30 04:48:28;;;;;;;2.13;0.95;;;;;;;34.76;23.95;100132.56;7394345;19;20011;-47
2024/01/30 04:50:55;;;;;;;0.10;0.10;;;;;;;34.91;24.04;100125.44;7394061;19;20015;-47
2024/01/30 04:53:22;;;;;;;1.17;0.98;;;;;;;34.79;24.10;100136.34;7394638;19;20023;-47
2024/01/30 04:55:48;;;;;;;0.80;0.45;;;;;;;34.37;24.38;100142.63;7397272;19;20436;-47
2024/01/30 04:58:14;;;;;;;8.05;1.60;;;;;;;34.25;24.32;100149.22;7393681;19;20020;-47
2024/01/30 05:00:40;;;;;;;19.27;1.17;;;;;;;34.23;24.48;100152.00;7393629;19;20014;-47
2024/01/30 05:03:06;;;;;;;0.85;0.60;;;;;;;34.41;24.47;100155.19;7391908;19;20014;-47
2024/01/30 05:05:32;;;;;;;2.78;0.35;;;;;;;34.51;24.21;100173.13;7394489;19;20010;-47
2024/01/30 05:07:58;;;;;;;0.13;0.10;;;;;;;34.76;23.90;100189.72;7393699;19;20018;-47
2024/01/30 05:10:24;;;;;;;1.08;0.95;;;;;;;34.06;24.51;100192.94;7395650;19;20010;-47
2024/01/30 05:12:50;;;;;;;0.82;0.68;;;;;;;33.75;24.34;100186.69;7393550;19;20014;-47
2024/01/30 05:15:17;;;;;;;0.20;0.20;;;;;;;34.34;24.28;100185.16;7392987;19;20007;-47
2024/01/30 05:17:43;;;;;;;0.50;0.50;;;;;;;34.11;24.37;100203.34;7392610;19;20018;-47
2024/01/30 05:20:10;;;;;;;0.50;0.50;;;;;;;34.21;24.56;100212.63;7392246;19;20363;-47
2024/01/30 05:22:36;;;;;;;0.10;0.10;;;;;;;34.33;24.43;100207.53;7395783;19;20007;-47
2024/01/30 05:25:04;;;;;;;0.28;0.28;;;;;;;34.45;24.29;100215.41;7392634;19;20066;-47
2024/01/30 05:27:30;;;;;;;0.20;0.20;;;;;;;34.34;24.26;100220.63;7394236;19;20044;-47
2024/01/30 05:29:56;;;;;;;0.30;0.30;;;;;;;34.42;23.94;100222.44;7392306;19;20017;-47
2024/01/30 05:32:22;;;;;;;1.70;0.40;;;;;;;34.20;24.21;100227.69;7392695;19;20011;-47
2024/01/30 05:34:50;;;;;;;0.40;0.20;;;;;;;34.01;24.08;100217.19;7392552;19;20015;-47
2024/01/30 05:37:17;;;;;;;0.25;0.20;;;;;;;34.21;24.10;100229.97;7396031;19;20372;-47
2024/01/30 05:39:43;;;;;;;0.20;0.20;;;;;;;34.38;24.14;100233.78;7393543;19;20033;-47
2024/01/30 05:42:10;;;;;;;0.63;0.30;;;;;;;34.56;23.90;100221.16;7397311;19;20038;-47
2024/01/30 05:44:36;;;;;;;0.73;0.13;;;;;;;34.82;23.73;100221.91;7400304;19;20527;-47
2024/01/30 05:47:02;;;;;;;1.80;0.45;;;;;;;35.10;23.76;100229.28;7399367;19;20011;-46
2024/01/30 05:49:28;;;;;;;1.98;1.45;;;;;;;35.14;23.70;100223.72;7399915;19;20014;-47
2024/01/30 05:51:54;;;;;;;1.23;0.88;;;;;;;35.27;23.59;100231.69;7399953;19;20015;-47
2024/01/30 05:54:20;;;;;;;2.85;1.13;;;;;;;35.14;23.33;100234.53;7399993;19;20015;-47
2024/01/30 05:56:46;;;;;;;2.65;1.40;;;;;;;34.97;23.59;100250.25;7400616;19;20015;-47
2024/01/30 05:59:12;;;;;;;0.52;0.52;;;;;;;35.04;23.96;100249.25;7400092;19;20014;-47
2024/01/30 06:01:45;;;;;;;0.90;0.55;;;;;;;34.89;23.55;100255.59;7400871;19;20090;-47
2024/01/30 06:04:11;;;;;;;1.52;0.57;;;;;;;34.81;23.66;100258.00;7400400;19;20019;-47
2024/01/30 06:06:37;;;;;;;3.25;1.23;;;;;;;34.37;23.99;100270.66;7397290;19;20002;-47
2024/01/30 06:09:04;;;;;;;0.55;0.55;;;;;;;34.44;24.07;100271.78;7399655;19;20042;-47
2024/01/30 06:11:30;;;;;;;0.98;0.77;;;;;;;35.31;23.36;100268.81;7403965;19;20014;-47
2024/01/30 06:13:56;;;;;;;5.30;1.50;;;;;;;35.42;22.90;100274.50;7398810;19;20045;-46
2024/01/30 06:16:22;;;;;;;5.40;2.90;;;;;;;35.74;22.52;100284.22;7398702;19;20007;-47
2024/01/30 06:18:48;;;;;;;0.70;0.63;;;;;;;35.71;22.59;100286.25;7398119;19;20394;-47
2024/01/30 06:21:14;;;;;;;1.85;0.47;;;;;;;35.51;22.76;100293.88;7400125;19;20007;-47
2024/01/30 06:23:40;;;;;;;1.45;1.02;;;;;;;35.52;22.70;100291.75;7399210;19;20030;-47
2024/01/30 06:26:07;;;;;;;0.82;0.70;;;;;;;35.85;22.65;100303.66;7396015;19;20007;-47
2024/01/30 06:28:33;;;;;;;0.52;0.50;;;;;;;35.87;22.31;100291.41;7402166;19;20022;-47
2024/01/30 06:44:25;;;;;;;4.47;2.33;;;;;;;34.66;23.57;100351.19;7271374;19;3077456;-50
2024/01/30 06:46:52;;;;;;;3.42;3.10;;;;;;;34.70;23.81;100360.13;7427412;19;20469;-50
2024/01/30 06:49:18;;;;;;;3.03;1.92;;;;;;;34.71;23.24;100359.50;7426194;19;20041;-50
2024/01/30 06:51:45;;;;;;;7.45;3.50;;;;;;;34.73;23.42;100374.09;7427592;19;20076;-50
2024/01/30 06:54:11;;;;;;;3.40;1.95;;;;;;;34.87;23.34;100380.69;7428321;19;20751;-50
2024/01/30 06:56:37;;;;;;;1.15;1.05;;;;;;;34.93;22.90;100389.00;7427879;19;20022;-50
2024/01/30 06:59:03;;;;;;;4.53;1.80;;;;;;;34.78;22.91;100390.28;7428611;19;20015;-50
2024/01/30 07:01:30;;;;;;;3.40;2.38;;;;;;;35.21;23.07;100402.25;7429004;19;20347;-50
2024/01/30 07:03:56;;;;;;;2.42;1.83;;;;;;;35.17;22.81;100399.13;7429398;19;20053;-50
2024/01/30 07:06:23;;;;;;;6.07;1.65;;;;;;;35.22;22.92;100403.72;7427561;19;20011;-50
2024/01/30 07:08:49;;;;;;;2.60;2.38;;;;;;;35.02;23.15;100409.13;7428874;19;20102;-50
2024/01/30 07:11:21;;;;;;;6.18;1.60;;;;;;;34.98;23.56;100419.66;7428372;19;20446;-50
2024/01/30 07:13:48;;;;;;;5.43;2.00;;;;;;;35.25;23.24;100419.84;7425653;19;20536;-50
2024/01/30 07:16:15;;;;;;;2.00;1.27;;;;;;;36.16;22.17;100427.88;7430041;19;20035;-50
2024/01/30 07:18:41;;;;;;;2.10;1.70;;;;;;;36.25;22.45;100429.81;7430209;19;20018;-50
2024/01/30 07:21:07;;;;;;;1.85;1.35;;;;;;;35.43;22.90;100438.25;7427764;19;20521;-50
2024/01/30 07:23:34;;;;;;;0.82;0.77;;;;;;;35.15;22.86;100442.41;7427916;19;20007;-50
2024/01/30 07:26:03;;;;;;;1.17;0.68;;;;;;;35.77;22.54;100451.84;7427228;19;20036;-50
2024/01/30 07:28:30;;;;;;;2.60;2.20;;;;;;;35.55;22.70;100453.47;7428635;19;20351;-50
2024/01/30 07:30:56;;;;;;;3.47;0.73;;;;;;;35.43;22.66;100458.53;7428054;19;20013;-50
2024/01/30 07:33:22;;;;;;;0.60;0.60;;;;;;;35.50;22.76;100479.94;7425218;19;20496;-50
2024/01/30 07:35:48;;;;;;;1.52;1.13;;;;;;;35.59;22.67;100481.94;7427521;19;20014;-51
2024/01/30 07:38:15;;;;;;;1.45;1.30;;;;;;;35.64;22.59;100483.69;7426815;19;20007;-50
2024/01/30 07:40:42;;;;;;;1.00;0.70;;;;;;;35.52;22.75;100495.31;7428223;19;20018;-50
2024/01/30 07:43:08;;;;;;;2.00;0.60;;;;;;;35.64;22.42;100507.63;7425184;19;20037;-50
2024/01/30 07:45:34;;;;;;;0.28;0.28;;;;;;;35.11;22.68;100497.22;7395932;19;20010;-50
2024/01/30 07:48:00;;;;;;;1.30;1.08;;;;;;;35.16;23.04;100506.91;7398868;19;20010;-50
2024/01/30 07:50:27;;;;;;;0.65;0.65;;;;;;;34.70;23.27;100511.38;7398258;19;20015;-50
2024/01/30 07:52:54;;;;;;;0.95;0.47;;;;;;;34.70;23.05;100520.06;7400685;19;20048;-50
2024/01/30 07:55:24;;;;;;;1.75;0.65;;;;;;;34.35;23.87;100528.72;7396433;19;20017;-50
2024/01/30 07:57:52;;;;;;;0.45;0.43;;;;;;;33.77;23.81;100522.03;7397750;19;20470;-50
2024/01/30 08:00:21;;;;;;;0.52;0.52;;;;;;;33.98;23.71;100530.63;7398150;19;20502;-50
2024/01/30 08:02:48;;;;;;;0.50;0.20;;;;;;;34.02;23.86;100536.72;7397257;19;20010;-50
2024/01/30 08:05:15;;;;;;;0.22;0.22;;;;;;;34.03;23.71;100543.25;7398103;19;20029;-50
2024/01/30 08:07:45;;;;;;;0.93;0.77;;;;;;;34.76;23.52;100557.31;7397033;19;20014;-50
2024/01/30 08:10:13;;;;;;;0.45;0.45;;;;;;;35.08;23.04;100562.22;7397584;19;20018;-50
2024/01/30 08:12:39;;;;;;;0.55;0.47;;;;;;;34.28;23.59;100560.78;7396384;19;20018;-50
2024/01/30 08:15:05;;;;;;;0.68;0.68;;;;;;;35.23;23.20;100563.81;7401629;19;20470;-50
2024/01/30 08:17:32;;;;;;;0.30;0.30;;;;;;;35.63;22.92;100572.78;7397366;19;20022;-50
2024/01/30 08:19:58;;;;;;;2.17;0.20;;;;;;;35.45;23.11;100579.63;7396386;19;20014;-50
2024/01/30 08:22:24;;;;;;;1.60;0.68;;;;;;;35.45;23.07;100577.47;7397311;19;20018;-50
2024/01/30 08:24:50;;;;;;;1.42;0.52;;;;;;;35.48;23.16;100584.91;7399915;19;20006;-50
2024/01/30 08:27:17;;;;;;;1.02;0.73;;;;;;;34.48;23.69;100587.34;7397297;19;20354;-50
2024/01/30 08:29:43;;;;;;;0.82;0.70;;;;;;;34.40;23.87;100595.50;7400168;19;20047;-50
2024/01/30 08:32:09;;;;;;;0.10;0.10;;;;;;;34.43;23.86;100608.72;7396572;19;20019;-50
2024/01/30 08:34:35;;;;;;;0.65;0.38;;;;;;;34.52;23.30;100617.31;7395805;19;20011;-50
2024/01/30 08:37:02;;;;;;;1.20;0.68;;;;;;;34.73;23.48;100620.09;7396310;19;20011;-50
2024/01/30 08:39:28;;;;;;;0.10;0.10;;;;;;;34.35;23.59;100624.16;7396956;19;20328;-50
2024/01/30 08:41:54;;;;;;;0.20;0.20;;;;;;;35.80;22.85;100635.38;7397079;19;20010;-50
2024/01/30 08:44:20;;;;;;;0.68;0.68;;;;;;;36.20;22.42;100631.16;7396191;19;20018;-50
2024/01/30 08:46:46;;;;;;;1.00;0.77;;;;;;;35.78;22.50;100643.91;7397066;19;20452;-50
2024/01/30 08:49:13;;;;;;;3.53;0.38;;;;;;;35.54;22.67;100649.03;7399804;19;20360;-50
2024/01/30 08:51:39;;;;;;;0.40;0.30;;;;;;;35.61;22.90;100653.03;7396691;19;20015;-50
2024/01/30 08:54:05;;;;;;;0.20;0.20;;;;;;;35.49;22.75;100656.00;7396970;19;20036;-50
2024/01/30 08:56:32;;;;;;;1.00;0.20;;;;;;;36.05;22.55;100667.31;7394282;19;20464;-50
2024/01/30 08:58:58;;;;;;;0.30;0.30;;;;;;;36.30;22.68;100681.06;7396967;19;20014;-50
2024/01/30 09:01:25;;;;;;;2.50;0.88;;;;;;;35.76;22.54;100681.50;7395892;19;20531;-50
2024/01/30 09:03:51;;;;;;;0.30;0.10;;;;;;;35.68;22.70;100681.78;7395510;19;20097;-50
2024/01/30 09:06:17;;;;;;;0.30;0.30;;;;;;;36.41;22.47;100686.03;7396486;19;20011;-50
2024/01/30 09:08:44;;;;;;;0.30;0.28;;;;;;;36.43;22.38;100694.88;7395800;19;20039;-50
2024/01/30 09:11:11;;;;;;;1.17;0.38;;;;;;;36.06;22.42;100699.97;7396458;19;20376;-50
2024/01/30 09:13:37;;;;;;;1.02;0.22;;;;;;;35.86;22.59;100704.53;7393221;19;20018;-50
2024/01/30 09:16:04;;;;;;;11.57;0.70;;;;;;;35.46;23.00;100715.19;7395179;19;20015;-50
2024/01/30 09:18:31;;;;;;;0.38;0.28;;;;;;;35.67;22.92;100725.91;7396311;19;20028;-50
2024/01/30 09:20:57;;;;;;;0.25;0.25;;;;;;;35.91;22.57;100733.13;7395771;19;20491;-50
2024/01/30 09:23:23;;;;;;;1.65;0.40;;;;;;;36.03;22.50;100730.22;7395766;19;20050;-50
2024/01/30 09:25:49;;;;;;;0.40;0.30;;;;;;;35.80;22.62;100739.75;7395541;19;20074;-50
2024/01/30 09:28:15;;;;;;;0.25;0.10;;;;;;;35.91;22.00;100738.19;7395164;19;20038;-50
2024/01/30 09:30:41;;;;;;;0.43;0.38;;;;;;;35.66;22.37;100744.66;7397883;19;20070;-50
2024/01/30 09:33:07;;;;;;;1.27;0.30;;;;;;;35.85;22.61;100752.31;7391391;19;20339;-50
2024/01/30 09:35:33;;;;;;;0.35;0.15;;;;;;;36.05;22.41;100753.56;7395592;19;20010;-50
2024/01/30 09:38:00;;;;;;;0.47;0.22;;;;;;;36.10;22.46;100761.13;7394306;19;20011;-50
2024/01/30 09:40:26;;;;;;;0.90;0.55;;;;;;;36.01;22.58;100770.72;7394213;19;20038;-52
2024/01/30 09:42:53;;;;;;;0.50;0.20;;;;;;;35.80;22.71;100778.16;7393841;19;20006;-50
2024/01/30 09:45:23;;;;;;;0.40;0.40;;;;;;;35.18;22.84;100780.03;7394304;19;20346;-52
2024/01/30 09:47:49;;;;;;;0.70;0.60;;;;;;;34.98;22.92;100785.28;7394561;19;20014;-50
2024/01/30 09:50:16;;;;;;;0.40;0.20;;;;;;;35.09;23.05;100789.59;7393833;19;20019;-51
2024/01/30 09:52:44;;;;;;;0.30;0.20;;;;;;;35.09;22.85;100786.69;7392042;19;20015;-50
2024/01/30 09:55:10;;;;;;;0.32;0.32;;;;;;;34.88;23.13;100798.34;7394289;19;20010;-50
2024/01/30 09:57:37;;;;;;;0.30;0.30;;;;;;;34.85;23.21;100802.47;7394354;19;20011;-50
2024/01/30 10:00:04;;;;;;;0.90;0.38;;;;;;;34.72;23.01;100805.97;7394199;19;20106;-50
2024/01/30 10:02:39;;;;;;;0.57;0.38;;;;;;;34.81;23.15;100822.47;7392062;19;20014;-50
2024/01/30 10:05:05;;;;;;;0.63;0.55;;;;;;;35.50;22.69;100816.88;7393103;19;20011;-50
2024/01/30 10:07:31;;;;;;;0.38;0.22;;;;;;;35.37;22.50;100820.38;7392726;19;20014;-50
2024/01/30 10:09:58;;;;;;;0.40;0.32;;;;;;;35.44;22.66;100824.41;7394667;19;20014;-51
2024/01/30 10:12:28;;;;;;;0.10;0.10;;;;;;;35.42;22.65;100827.94;7392855;19;20010;-50
2024/01/30 10:14:56;;;;;;;0.20;0.20;;;;;;;35.74;22.46;100838.69;7393511;19;20062;-50
2024/01/30 10:17:25;;;;;;;0.77;0.40;;;;;;;35.20;22.78;100854.72;7393025;19;20490;-50
2024/01/30 10:19:51;;;;;;;4.03;0.57;;;;;;;35.04;22.87;100848.66;7396331;19;20015;-50
2024/01/30 10:22:18;;;;;;;0.25;0.25;;;;;;;35.12;23.02;100854.97;7393753;19;20455;-50
2024/01/30 10:24:45;;;;;;;1.10;0.52;;;;;;;35.35;22.96;100855.00;7393008;19;20070;-50
2024/01/30 10:27:11;;;;;;;0.80;0.65;;;;;;;35.33;22.75;100857.78;7392767;19;20019;-50
2024/01/30 10:29:37;;;;;;;0.45;0.35;;;;;;;35.32;22.58;100876.56;7395463;19;20018;-50
2024/01/30 10:32:05;;;;;;;0.30;0.20;;;;;;;34.93;22.91;100881.19;7392611;19;20018;-50
2024/01/30 10:34:33;;;;;;;0.20;0.20;;;;;;;34.84;23.09;100873.34;7391844;19;20359;-50
2024/01/30 10:37:05;;;;;;;0.60;0.43;;;;;;;34.55;23.34;100881.50;7393426;19;20019;-50
2024/01/30 10:39:36;;;;;;;2.60;0.57;;;;;;;34.11;23.24;100903.09;7392331;19;20011;-50
2024/01/30 10:42:05;;;;;;;0.70;0.70;;;;;;;34.33;23.61;100898.84;7394025;19;20473;-50
2024/01/30 10:44:57;;;;;;;0.10;0.10;;;;;;;34.47;23.60;100910.66;7392950;19;20015;-50
2024/01/30 10:47:27;;;;;;;0.20;0.17;;;;;;;34.72;22.77;100913.06;7395071;19;20011;-50
2024/01/30 10:49:54;;;;;;;0.43;0.43;;;;;;;34.74;22.93;100916.13;7397543;19;20011;-50
2024/01/30 10:52:25;;;;;;;0.43;0.35;;;;;;;34.71;22.71;100923.13;7391673;19;20019;-50
2024/01/30 10:54:52;;;;;;;4.43;1.35;;;;;;;34.70;22.79;100921.59;7392695;19;20022;-50
2024/01/30 10:57:18;;;;;;;0.20;0.20;;;;;;;34.78;22.83;100925.81;7393919;19;20033;-50
2024/01/30 10:59:45;;;;;;;0.77;0.28;;;;;;;34.73;23.17;100931.94;7392985;19;20032;-50
2024/01/30 11:02:12;;;;;;;0.30;0.30;;;;;;;34.39;23.27;100946.94;7391684;19;20014;-50
2024/01/30 11:04:40;;;;;;;0.10;0.10;;;;;;;34.04;23.37;100956.09;7391592;19;20022;-51
2024/01/30 11:07:17;;;;;;;0.40;0.30;;;;;;;34.35;23.36;100951.06;7390045;19;20011;-51
2024/01/30 11:09:54;;;;;;;0.10;0.10;;;;;;;34.58;23.26;100950.50;7394357;19;20083;-50
2024/01/30 11:12:24;;;;;;;0.30;0.30;;;;;;;34.52;23.03;100964.56;7389724;19;20015;-50
2024/01/30 11:15:06;;;;;;;0.10;0.10;;;;;;;34.56;23.16;100969.84;7391776;19;20094;-50
2024/01/30 11:17:42;;;;;;;0.35;0.20;;;;;;;34.69;22.97;100967.19;7391698;19;20019;-52
2024/01/30 11:20:22;;;;;;;0.20;0.20;;;;;;;34.74;23.35;100976.91;7399672;19;20037;-52
2024/01/30 11:22:54;;;;;;;0.10;0.10;;;;;;;34.78;23.16;100974.28;7396528;19;20047;-52
2024/01/30 11:25:22;;;;;;;0.50;0.20;;;;;;;34.82;23.28;100962.97;7393252;19;20010;-52
2024/01/30 11:27:53;;;;;;;0.10;0.10;;;;;;;34.85;23.01;100967.50;7394735;19;20462;-52
2024/01/30 11:30:22;;;;;;;0.20;0.20;;;;;;;35.23;22.96;100981.72;7398695;19;20011;-52
2024/01/30 11:33:06;;;;;;;0.10;0.10;;;;;;;35.34;23.07;100975.19;7393423;19;20343;-52
2024/01/30 11:35:38;;;;;;;0.20;0.10;;;;;;;34.27;23.51;100991.00;7394100;19;20017;-52
2024/01/30 11:38:05;;;;;;;0.10;0.10;;;;;;;34.06;23.62;100993.84;7394729;19;20019;-52